Ireland METAR reports

 

EIDW - Dublin Airport, Ireland
Distance from station: WNW 13km
Updated: 08/04/2020 08:30
Partly cloudy
Partly cloudy
 Wind from W
Wind: W 6 km/h
Temperature: 8°C
Dew Point: 4°C
Humidity: 76%
Barometer: 1025 hPa
Clouds: Partly cloudy
Visibility: 10 km
Cloud details: Few Clouds 549 m
Partly cloudy 1372 m
2020/04/08 07:30 EIDW 080730Z 26003KT 9999 FEW018 SCT045 08/04 Q1025 NOSIG
EIME - Casement (mil), Ireland
Distance from station: WSW 26km
Updated: 08/04/2020 08:30
Few Clouds
Few Clouds
 Wind from varies
Wind: varies 2 km/h
Temperature: 9°C
Dew Point: 5°C
Humidity: 76%
Barometer: 1025 hPa
Clouds: Few Clouds
Visibility: 10 km
Cloud details: Few Clouds 1219 m
2020/04/08 07:30 EIME 080730Z VRB01KT 9999 FEW040 09/05 Q1025
 
EGAC - Belfast Harbour, United Kingdom
Distance from station: N 140km
Updated: 08/04/2020 08:50
Clear
Clear
 Wind from SSW
Wind: SSW 13 km/h
Temperature: 9°C
Wind Chill: 7°C
Dew Point: 5°C
Humidity: 76%
Barometer: 1025 hPa
Clouds: Clear
Visibility: 10 km
2020/04/08 07:50 EGAC 080750Z AUTO 21007KT 9999 NCD 09/05 Q1025
EGAA - Belfast/Aldergro, United Kingdom
Distance from station: N 141km
Updated: 08/04/2020 08:50
Clear
Clear
 Wind from SSW
Wind: SSW 13 km/h
Temperature: 9°C
Wind Chill: 7°C
Dew Point: 6°C
Humidity: 82%
Barometer: 1025 hPa
Summary: Clear
Visibility: greater than 10 km
2020/04/08 07:50 EGAA 080750Z 20007KT CAVOK 09/06 Q1025
 
EIWF - Waterford Arpt, Ireland
Distance from station: SSW 148km
Updated: 08/04/2020 08:30
Mostly cloudy
Mostly cloudy
 Wind from calm
Wind: Calm
Temperature: 8°C
Dew Point: 7°C
Humidity: 93%
Barometer: 1025 hPa
Clouds: Mostly cloudy
Visibility: 10 km
Cloud details: Partly cloudy 579 m
Mostly cloudy 1067 m
2020/04/08 07:30 EIWF 080730Z 00000KT 9999 SCT019 BKN035 08/07 Q1025
EIKN - Connaught Apt, Ireland
Distance from station: WNW 191km
Updated: 30/03/2020 15:30
NOT Current
Mostly cloudy
Mostly cloudy
 Wind from N
Wind: N 30 km/h
Temperature: 8°C
Wind Chill: 4°C
Dew Point: 5°C
Humidity: 82%
Barometer: 1040 hPa
Clouds: Mostly cloudy
Visibility: 10 km
Cloud details: Few Clouds 732 m
Mostly cloudy 1097 m
2020/03/30 14:30 EIKN 301430Z 36016KT 9999 FEW024 BKN036 08/05 Q1040
 
EISG - Sligo Arpt, Ireland
Distance from station: WNW 195km
Updated: 08/04/2020 08:30
Overcast
Overcast
 Wind from SSE
Wind: SSE 9 km/h
Temperature: 9°C
Wind Chill: 7°C
Dew Point: 9°C
Humidity: 100%
Barometer: 1023 hPa
Clouds: Overcast
Visibility: 10 km
Cloud details: Overcast 701 m
2020/04/08 07:30 EISG 080730Z 15005KT 100V200 9999 OVC023 09/09 Q1023
EGAE - Eglinton/Londond, United Kingdom
Distance from station: NNW 198km
Updated: 07/04/2020 20:50
NOT Current
Few Clouds
Few Clouds
 Wind from SSW
Wind: SSW 6 km/h
Temperature: 13°C
Dew Point: 5°C
Humidity: 59%
Barometer: 1022 hPa
Clouds: Few Clouds
Visibility: 10 km
Cloud details: Few Clouds 1463 m
2020/04/07 19:50 EGAE 071950Z 21003KT 9999 FEW048 13/05 Q1022
 
EINN - Shannon Airport, Ireland
Distance from station: WSW 204km
Updated: 08/04/2020 08:30
Fog, Mostly cloudy
Fog, Mostly cloudy
 Wind from ESE
Wind: ESE 15 km/h
Temperature: 5°C
Wind Chill: 2°C
Dew Point: 5°C
Humidity: 100%
Barometer: 1025 hPa
Summary: Fog
Clouds: Mostly cloudy
Visibility: 0 km
Cloud details: Mostly cloudy 61 m
2020/04/08 07:30 EINN 080730Z 12008KT 0300 R24/0600D R06/0800N FG BKN002 05/05 Q1025 TEMPO 0200 BKN001
EICK - Cork Arpt/Corcai, Ireland
Distance from station: SW 234km
Updated: 08/04/2020 08:30
Fog, Partly cloudy
Fog, Partly cloudy
 Wind from varies
Wind: varies 2 km/h
Temperature: 5°C
Dew Point: 5°C
Humidity: 100%
Barometer: 1025 hPa
Summary: Fog
Clouds: Partly cloudy
Visibility: 1 km
Cloud details: Partly cloudy 30 m
2020/04/08 07:30 EICK 080730Z VRB01KT 0500 R16/0275D R34/0250N FG SCT001 05/05 Q1025 BECMG 4000